Time;durP1;ratioP1;P1;durP2;ratioP2;P2;SDS_P1;SDS_P2;PMS_P1;PMS_P2;Temp;Humidity;BMP_temperature;BMP_pressure;BME280_temperature;BME280_humidity;BME280_pressure;Samples;Min_cycle;Max_cycle;Signal;HPM_P1;HPM_P2
2024/04/15 00:02:19;;;;;;;2.47;1.10;;;21.50;63.20;;;;;;5352585;26;20230;-92
2024/04/15 00:04:48;;;;;;;1.53;0.90;;;21.40;63.20;;;;;;5352636;26;20541;-91
2024/04/15 00:07:13;;;;;;;2.10;1.27;;;21.40;63.20;;;;;;5355492;26;20452;-91
2024/04/15 00:09:42;;;;;;;2.10;1.03;;;21.40;63.20;;;;;;5350553;26;20677;-91
2024/04/15 00:12:10;;;;;;;1.93;1.00;;;21.40;63.20;;;;;;5349631;26;20298;-92
2024/04/15 00:14:39;;;;;;;2.87;1.20;;;21.40;63.20;;;;;;5350380;26;20517;-91
2024/04/15 00:17:04;;;;;;;2.40;1.40;;;21.40;63.20;;;;;;5349408;26;20566;-91
2024/04/15 00:19:33;;;;;;;1.93;1.00;;;21.40;63.20;;;;;;5349687;26;20847;-91
2024/04/15 00:21:59;;;;;;;1.50;0.90;;;21.40;63.20;;;;;;5348631;26;20690;-91
2024/04/15 00:24:27;;;;;;;2.40;1.10;;;21.50;63.40;;;;;;5364815;26;20488;-90
2024/04/15 00:26:53;;;;;;;1.60;1.00;;;21.40;63.30;;;;;;5371541;26;20286;-91
2024/04/15 00:29:25;;;;;;;1.50;0.80;;;21.40;63.30;;;;;;5358622;26;20968;-91
2024/04/15 00:31:50;;;;;;;1.50;0.80;;;21.50;63.40;;;;;;5334919;26;20557;-91
2024/04/15 00:34:19;;;;;;;1.60;0.90;;;21.40;63.30;;;;;;5349885;26;20503;-90
2024/04/15 00:36:45;;;;;;;1.80;1.00;;;21.40;63.30;;;;;;5348835;26;20215;-91
2024/04/15 00:39:14;;;;;;;1.80;0.90;;;21.40;63.30;;;;;;5348882;26;20505;-91
2024/04/15 00:41:39;;;;;;;1.60;0.87;;;21.40;63.30;;;;;;5349263;26;20519;-91
2024/04/15 00:44:08;;;;;;;1.83;1.20;;;21.50;63.50;;;;;;5349091;26;20441;-91
2024/04/15 00:46:37;;;;;;;1.50;0.97;;;21.40;63.30;;;;;;5364907;26;20249;-91
2024/04/15 00:49:06;;;;;;;1.40;0.80;;;21.40;63.30;;;;;;5370645;26;20468;-91
2024/04/15 00:51:32;;;;;;;1.40;0.70;;;21.40;63.30;;;;;;5371093;26;20527;-90
2024/04/15 00:54:01;;;;;;;1.77;1.00;;;21.40;63.30;;;;;;5360306;26;20453;-91
2024/04/15 00:56:27;;;;;;;1.70;1.07;;;21.40;63.30;;;;;;5350504;26;20453;-91
2024/04/15 00:58:55;;;;;;;1.97;1.10;;;21.40;64.20;;;;;;5349569;26;20581;-92
2024/04/15 01:01:22;;;;;;;1.90;1.10;;;21.40;63.40;;;;;;5350559;26;20556;-91
2024/04/15 01:03:54;;;;;;;1.77;1.00;;;21.40;63.40;;;;;;5349479;26;20449;-92
2024/04/15 01:06:20;;;;;;;2.93;1.10;;;21.40;63.40;;;;;;5348568;26;20445;-92
2024/04/15 01:08:48;;;;;;;2.00;1.00;;;21.40;63.40;;;;;;5348953;26;20497;-92
2024/04/15 01:11:15;;;;;;;1.50;0.80;;;21.40;63.40;;;;;;5348864;26;20230;-92
2024/04/15 01:13:43;;;;;;;1.60;0.80;;;21.50;63.60;;;;;;5348401;26;20859;-92
2024/04/15 01:16:09;;;;;;;1.63;1.00;;;21.40;63.40;;;;;;5349365;26;20477;-91
2024/04/15 01:18:38;;;;;;;1.53;0.83;;;21.40;63.40;;;;;;5348886;26;20533;-92
2024/04/15 01:21:08;;;;;;;1.50;0.80;;;21.50;63.60;;;;;;5348373;26;20565;-91
2024/04/15 01:23:40;;;;;;;1.50;0.80;;;21.40;63.40;;;;;;5348551;26;20973;-92
2024/04/15 01:26:09;;;;;;;1.70;0.90;;;21.40;63.40;;;;;;5349634;26;20520;-90
2024/04/15 01:28:37;;;;;;;1.80;1.17;;;21.40;63.40;;;;;;5348097;26;20591;-91
2024/04/15 01:31:03;;;;;;;1.80;1.00;;;21.40;63.40;;;;;;5348488;26;20503;-92
2024/04/15 01:33:32;;;;;;;1.50;0.80;;;21.40;63.40;;;;;;5348273;26;20645;-92
2024/04/15 01:35:57;;;;;;;1.70;0.97;;;21.50;63.60;;;;;;5348225;26;20568;-92
2024/04/15 01:38:26;;;;;;;1.80;0.80;;;21.40;63.50;;;;;;5348485;26;20461;-92
2024/04/15 01:40:52;;;;;;;2.00;0.97;;;21.40;63.50;;;;;;5348262;26;20329;-93
2024/04/15 01:43:23;;;;;;;3.93;1.00;;;21.30;63.40;;;;;;5348529;26;20791;-92
2024/04/15 01:45:49;;;;;;;2.57;1.20;;;21.40;63.50;;;;;;5348305;26;20238;-91
2024/04/15 01:48:17;;;;;;;3.63;1.07;;;21.40;63.50;;;;;;5347627;26;20465;-92
2024/04/15 01:50:43;;;;;;;1.93;0.80;;;21.30;63.40;;;;;;5348228;26;20469;-92
2024/04/15 01:53:12;;;;;;;2.20;1.00;;;21.50;63.70;;;;;;5348468;26;21067;-93
2024/04/15 01:55:37;;;;;;;2.00;1.00;;;21.30;63.40;;;;;;5370322;26;20211;-92
2024/04/15 01:58:06;;;;;;;1.60;0.90;;;21.30;63.40;;;;;;5369055;26;20972;-91
2024/04/15 02:00:35;;;;;;;2.00;1.13;;;21.40;63.50;;;;;;5350012;26;20226;-93
2024/04/15 02:03:04;;;;;;;1.70;0.80;;;21.30;63.40;;;;;;5352080;26;20449;-92
2024/04/15 02:05:30;;;;;;;2.00;1.00;;;21.30;63.40;;;;;;5351323;26;20563;-92
2024/04/15 02:08:01;;;;;;;1.70;1.00;;;21.30;63.40;;;;;;5351138;26;20552;-92
2024/04/15 02:10:27;;;;;;;1.60;1.00;;;21.30;63.40;;;;;;5351488;26;20682;-93
2024/04/15 02:12:55;;;;;;;1.60;0.90;;;21.40;63.60;;;;;;5350664;26;20541;-92
2024/04/15 02:15:21;;;;;;;1.70;0.97;;;21.30;63.50;;;;;;5350683;26;20441;-92
2024/04/15 02:17:52;;;;;;;1.60;1.00;;;21.30;63.50;;;;;;5351038;26;20570;-92
2024/04/15 02:20:18;;;;;;;1.70;0.90;;;21.30;63.50;;;;;;5351207;26;20227;-93
2024/04/15 02:22:46;;;;;;;2.07;0.93;;;21.40;63.60;;;;;;5350790;26;20789;-91
2024/04/15 02:25:12;;;;;;;2.43;0.93;;;21.30;63.50;;;;;;5351364;26;20320;-92
2024/04/15 02:27:41;;;;;;;1.83;1.00;;;21.30;63.50;;;;;;5350750;26;20449;-91
2024/04/15 02:30:07;;;;;;;1.70;0.80;;;21.30;63.50;;;;;;5350939;26;20271;-92
2024/04/15 02:32:35;;;;;;;1.77;0.80;;;21.30;63.50;;;;;;5350937;26;20516;-92
2024/04/15 02:35:05;;;;;;;1.67;1.00;;;21.30;63.50;;;;;;5350579;26;20437;-91
2024/04/15 02:37:33;;;;;;;1.50;0.83;;;21.30;63.50;;;;;;5350659;26;21039;-92
2024/04/15 02:39:59;;;;;;;1.70;0.90;;;21.30;63.50;;;;;;5351345;26;20457;-92
2024/04/15 02:42:27;;;;;;;1.50;0.90;;;21.30;63.50;;;;;;5350709;26;20464;-91
2024/04/15 02:44:54;;;;;;;1.80;1.00;;;21.30;63.50;;;;;;5350644;26;20234;-92
2024/04/15 02:47:23;;;;;;;2.30;0.90;;;21.30;64.40;;;;;;5350621;26;20449;-92
2024/04/15 02:49:49;;;;;;;2.47;0.80;;;21.30;63.50;;;;;;5350711;26;20445;-92
2024/04/15 02:52:20;;;;;;;1.50;0.90;;;21.30;63.50;;;;;;5350749;26;20491;-91
2024/04/15 02:54:46;;;;;;;1.60;0.80;;;21.30;63.60;;;;;;5350978;26;20546;-92
2024/04/15 02:57:14;;;;;;;2.03;1.20;;;21.30;63.50;;;;;;5350626;26;20453;-92
2024/04/15 02:59:40;;;;;;;1.70;0.80;;;21.30;63.60;;;;;;5350460;26;20465;-91
2024/04/15 03:02:09;;;;;;;1.80;1.00;;;21.30;63.60;;;;;;5350214;26;20445;-91
2024/04/15 03:04:34;;;;;;;1.50;0.90;;;21.40;63.60;;;;;;5350399;26;20321;-91
2024/04/15 03:07:03;;;;;;;1.50;0.90;;;21.40;63.70;;;;;;5350373;26;20457;-91
2024/04/15 03:09:31;;;;;;;1.50;0.80;;;21.40;63.70;;;;;;5350241;26;20349;-91
2024/04/15 03:12:00;;;;;;;1.70;1.10;;;21.30;63.50;;;;;;5349695;26;21016;-90
2024/04/15 03:14:25;;;;;;;1.50;0.90;;;21.40;63.60;;;;;;5350815;26;20460;-91
2024/04/15 03:16:54;;;;;;;1.80;1.10;;;21.40;64.50;;;;;;5350312;26;20560;-91
2024/04/15 03:19:20;;;;;;;2.10;1.07;;;21.30;63.60;;;;;;5350698;26;20604;-91
2024/04/15 03:21:48;;;;;;;1.50;0.80;;;21.30;63.60;;;;;;5350227;26;20582;-91
2024/04/15 03:24:14;;;;;;;1.60;0.90;;;21.30;63.60;;;;;;5350090;26;20222;-91
2024/04/15 03:26:45;;;;;;;1.70;1.00;;;21.30;63.60;;;;;;5357750;26;20553;-90
2024/04/15 03:29:11;;;;;;;1.67;0.80;;;21.40;63.70;;;;;;5372126;26;20469;-90
2024/04/15 03:31:40;;;;;;;2.27;1.00;;;21.30;63.60;;;;;;5366345;26;20453;-91
2024/04/15 03:34:05;;;;;;;2.83;0.90;;;21.30;63.60;;;;;;5349951;26;20679;-92
2024/04/15 03:36:34;;;;;;;1.50;0.77;;;21.30;63.60;;;;;;5349948;26;20493;-90
2024/04/15 03:39:02;;;;;;;1.60;0.80;;;21.30;63.60;;;;;;5350073;26;20690;-91
2024/04/15 03:41:31;;;;;;;2.50;1.07;;;21.20;63.50;;;;;;5349796;26;20575;-91
2024/04/15 03:44:04;;;;;;;1.50;0.90;;;21.30;63.70;;;;;;5349908;26;20437;-91
2024/04/15 03:46:30;;;;;;;2.37;0.83;;;21.30;63.60;;;;;;5349810;26;20493;-90
2024/04/15 03:48:59;;;;;;;2.50;0.90;;;21.20;63.50;;;;;;5349575;26;20516;-91
2024/04/15 03:51:24;;;;;;;2.03;1.10;;;21.30;63.60;;;;;;5350010;26;20559;-90
2024/04/15 03:53:53;;;;;;;1.67;0.93;;;21.20;63.50;;;;;;5349830;26;20837;-91
2024/04/15 03:56:19;;;;;;;1.80;0.80;;;21.20;63.50;;;;;;5350397;26;20277;-92
2024/04/15 03:58:47;;;;;;;1.50;0.80;;;21.20;63.50;;;;;;5349595;26;20460;-92
2024/04/15 04:01:16;;;;;;;1.70;0.90;;;21.20;63.50;;;;;;5349784;26;20222;-92
2024/04/15 04:03:44;;;;;;;1.67;0.90;;;21.30;63.70;;;;;;5350055;26;20492;-92
2024/04/15 04:06:12;;;;;;;1.80;0.90;;;21.20;63.50;;;;;;5349545;26;20453;-92
2024/04/15 04:08:41;;;;;;;1.70;0.90;;;21.30;63.70;;;;;;5349431;26;20461;-92
2024/04/15 04:11:08;;;;;;;1.90;0.90;;;21.30;63.70;;;;;;5349476;26;20528;-92
2024/04/15 04:13:36;;;;;;;1.90;1.03;;;21.20;64.40;;;;;;5349288;26;20582;-93
2024/04/15 04:16:03;;;;;;;1.90;1.00;;;21.20;63.50;;;;;;5349342;26;20524;-92
2024/04/15 04:18:34;;;;;;;1.77;0.87;;;21.20;63.50;;;;;;5349595;26;20460;-92
2024/04/15 04:21:00;;;;;;;1.63;0.80;;;21.30;63.60;;;;;;5349440;26;20512;-92
2024/04/15 04:23:28;;;;;;;2.00;1.00;;;21.20;63.50;;;;;;5347568;26;20563;-92
2024/04/15 04:25:54;;;;;;;2.10;0.80;;;21.20;63.50;;;;;;5349287;26;20284;-91
2024/04/15 04:28:23;;;;;;;1.80;0.70;;;21.20;63.50;;;;;;5349435;26;20461;-92
2024/04/15 04:30:49;;;;;;;1.63;1.03;;;21.20;63.50;;;;;;5349516;26;20273;-92
2024/04/15 04:33:17;;;;;;;1.57;0.80;;;21.20;63.50;;;;;;5349405;26;20460;-92
2024/04/15 04:35:46;;;;;;;1.50;0.80;;;21.20;63.50;;;;;;5349668;26;20230;-92
2024/04/15 04:38:14;;;;;;;2.10;1.00;;;21.30;63.70;;;;;;5353511;26;20500;-92
2024/04/15 04:40:40;;;;;;;1.60;1.00;;;21.20;63.50;;;;;;5350457;26;20513;-92
2024/04/15 04:43:09;;;;;;;1.60;0.80;;;21.20;63.60;;;;;;5348852;26;20580;-92
2024/04/15 04:45:34;;;;;;;2.03;1.20;;;21.20;63.50;;;;;;5349092;26;20608;-92
2024/04/15 04:48:03;;;;;;;1.90;1.10;;;21.20;63.50;;;;;;5349157;26;20449;-92
2024/04/15 04:50:31;;;;;;;2.40;1.10;;;21.20;63.50;;;;;;5349392;26;20629;-92
2024/04/15 04:53:00;;;;;;;1.50;0.90;;;21.30;63.70;;;;;;5349191;26;20460;-92
2024/04/15 04:55:28;;;;;;;1.70;0.90;;;21.20;63.50;;;;;;5349103;26;20456;-92
2024/04/15 04:57:54;;;;;;;1.40;0.70;;;21.20;63.50;;;;;;5366452;26;20517;-92
2024/04/15 05:00:23;;;;;;;1.60;0.80;;;21.20;63.50;;;;;;5371079;26;20441;-91
2024/04/15 05:02:50;;;;;;;1.60;0.90;;;21.30;63.70;;;;;;5356027;26;20218;-92
2024/04/15 05:05:19;;;;;;;1.80;1.00;;;21.20;64.40;;;;;;5350478;26;20549;-92
2024/04/15 05:07:45;;;;;;;1.60;0.90;;;21.30;63.70;;;;;;5349059;26;20489;-92
2024/04/15 05:10:16;;;;;;;2.17;0.90;;;21.20;63.50;;;;;;5349780;26;20980;-92
2024/04/15 05:12:42;;;;;;;1.50;0.80;;;21.20;63.60;;;;;;5348620;26;20223;-93
2024/04/15 05:15:11;;;;;;;1.60;0.90;;;21.20;63.60;;;;;;5349526;26;20441;-92
2024/04/15 05:17:37;;;;;;;1.70;0.80;;;21.20;63.60;;;;;;5349148;26;20453;-93
2024/04/15 05:20:06;;;;;;;4.97;1.00;;;21.20;63.50;;;;;;5349214;26;20496;-92
2024/04/15 05:22:31;;;;;;;1.90;1.00;;;21.20;63.60;;;;;;5351609;26;20241;-93
2024/04/15 05:25:00;;;;;;;1.60;1.10;;;21.20;63.50;;;;;;5350780;26;20503;-92
2024/04/15 05:27:28;;;;;;;1.50;0.80;;;21.30;63.70;;;;;;5349124;26;20215;-92
2024/04/15 05:29:57;;;;;;;2.20;1.00;;;21.20;63.50;;;;;;5349645;26;20453;-92
2024/04/15 05:32:23;;;;;;;2.00;1.00;;;21.20;64.40;;;;;;5348553;26;20457;-91
2024/04/15 05:34:51;;;;;;;1.50;0.70;;;21.20;63.50;;;;;;5350090;26;20835;-92
2024/04/15 05:37:17;;;;;;;1.63;0.90;;;21.30;63.70;;;;;;5351574;26;20245;-91
2024/04/15 05:39:45;;;;;;;1.63;0.80;;;21.30;63.70;;;;;;5353940;26;20795;-91
2024/04/15 05:42:11;;;;;;;1.70;0.90;;;21.20;63.50;;;;;;5373154;26;20289;-92
2024/04/15 05:44:42;;;;;;;2.00;0.90;;;21.20;63.50;;;;;;5373698;26;20444;-91
2024/04/15 05:47:09;;;;;;;1.50;0.80;;;21.20;63.50;;;;;;5373561;26;20449;-91
2024/04/15 05:49:38;;;;;;;1.50;0.90;;;21.30;63.70;;;;;;5352900;26;20513;-91
2024/04/15 05:52:04;;;;;;;1.80;1.00;;;21.20;63.50;;;;;;5354969;26;20450;-91
2024/04/15 05:54:33;;;;;;;1.50;0.70;;;21.20;63.60;;;;;;5360091;26;20551;-92
2024/04/15 05:57:01;;;;;;;2.00;0.90;;;21.20;63.50;;;;;;5354048;26;20504;-92
2024/04/15 05:59:30;;;;;;;1.87;1.10;;;21.20;63.50;;;;;;5351675;26;20544;-92
2024/04/15 06:01:58;;;;;;;1.83;1.00;;;21.20;63.60;;;;;;5351233;26;20472;-92
2024/04/15 06:04:27;;;;;;;1.70;0.80;;;21.20;63.60;;;;;;5350956;26;20468;-92
2024/04/15 06:06:52;;;;;;;1.80;1.07;;;21.20;63.50;;;;;;5351260;26;20469;-92
2024/04/15 06:09:21;;;;;;;1.90;0.90;;;21.20;63.60;;;;;;5350590;26;20836;-91
2024/04/15 06:11:47;;;;;;;1.60;0.97;;;21.20;63.50;;;;;;5351183;26;20227;-92
2024/04/15 06:14:16;;;;;;;1.60;0.90;;;21.20;63.50;;;;;;5350856;26;20541;-92
2024/04/15 06:16:41;;;;;;;1.63;0.80;;;21.20;63.50;;;;;;5351537;26;20226;-91
2024/04/15 06:19:13;;;;;;;1.77;1.10;;;21.10;63.40;;;;;;5351372;26;20449;-92
2024/04/15 06:21:38;;;;;;;1.60;0.80;;;21.20;63.50;;;;;;5351083;26;20285;-91
2024/04/15 06:24:07;;;;;;;1.80;0.90;;;21.20;63.50;;;;;;5351141;26;20465;-91
2024/04/15 06:26:33;;;;;;;1.50;0.90;;;21.20;63.60;;;;;;5351308;26;20320;-91
2024/04/15 06:29:03;;;;;;;1.90;1.00;;;21.20;63.60;;;;;;5350944;26;20509;-90
2024/04/15 06:31:29;;;;;;;1.47;0.80;;;21.20;63.60;;;;;;5362982;26;21113;-91
2024/04/15 06:33:59;;;;;;;1.70;1.00;;;21.20;63.50;;;;;;5373062;26;20437;-90
2024/04/15 06:36:28;;;;;;;2.30;1.00;;;21.30;63.70;;;;;;5364256;26;20445;-92
2024/04/15 06:38:57;;;;;;;1.60;0.97;;;21.20;63.50;;;;;;5351335;26;20861;-92
2024/04/15 06:41:23;;;;;;;1.60;0.90;;;21.20;63.50;;;;;;5350700;26;20485;-93
2024/04/15 06:43:52;;;;;;;1.83;1.00;;;21.20;63.50;;;;;;5351013;26;20445;-91
2024/04/15 06:46:18;;;;;;;1.53;0.87;;;21.20;63.50;;;;;;5349752;26;20489;-91
2024/04/15 06:48:46;;;;;;;2.10;0.80;;;21.20;63.50;;;;;;5350336;26;20868;-91
2024/04/15 06:51:12;;;;;;;1.53;0.83;;;21.30;63.70;;;;;;5350859;26;20554;-91
2024/04/15 06:53:44;;;;;;;1.60;0.80;;;21.20;63.50;;;;;;5350572;26;20503;-91
2024/04/15 06:56:18;;;;;;;1.70;0.90;;;21.10;63.40;;;;;;5350677;26;20461;-91
2024/04/15 06:58:47;;;;;;;1.77;1.00;;;21.20;63.50;;;;;;5350554;26;20564;-91
2024/04/15 07:01:13;;;;;;;2.33;1.10;;;21.20;63.50;;;;;;5350237;26;20457;-94
2024/04/15 07:03:41;;;;;;;2.90;1.10;;;21.10;63.40;;;;;;5350360;26;20497;-91
2024/04/15 07:06:07;;;;;;;1.60;0.80;;;21.20;63.50;;;;;;5350459;26;20219;-93
2024/04/15 07:08:36;;;;;;;1.53;0.90;;;21.20;63.50;;;;;;5350369;26;20577;-92
2024/04/15 07:11:04;;;;;;;2.23;1.10;;;21.20;63.50;;;;;;5350315;26;20230;-92
2024/04/15 07:13:33;;;;;;;1.70;0.87;;;21.20;63.50;;;;;;5350203;26;20465;-92
2024/04/15 07:15:59;;;;;;;1.50;0.90;;;21.20;63.50;;;;;;5350188;26;20446;-92
2024/04/15 07:18:28;;;;;;;2.10;0.90;;;21.20;63.50;;;;;;5350307;26;20493;-91
2024/04/15 07:20:53;;;;;;;1.63;0.90;;;21.20;63.50;;;;;;5350314;26;20262;-91
2024/04/15 07:23:22;;;;;;;2.40;1.00;;;21.20;63.50;;;;;;5350247;26;20503;-92
2024/04/15 07:25:54;;;;;;;2.33;1.00;;;21.20;63.50;;;;;;5350014;26;20219;-93
2024/04/15 07:28:25;;;;;;;1.60;0.90;;;21.10;63.40;;;;;;5350415;26;20528;-91
2024/04/15 07:30:55;;;;;;;2.10;1.00;;;21.20;63.50;;;;;;5349644;26;20461;-92
2024/04/15 07:33:24;;;;;;;1.40;0.70;;;21.30;63.70;;;;;;5350165;26;21072;-92
2024/04/15 07:35:54;;;;;;;1.40;0.70;;;21.20;63.50;;;;;;5349996;26;20532;-92
2024/04/15 07:41:07;;;;;;;1.57;0.77;;;21.20;63.50;;;;;;3476802;25;20485;-91
2024/04/15 07:43:35;;;;;;;1.60;0.90;;;21.20;63.50;;;;;;5352626;26;20456;-91
2024/04/15 07:46:04;;;;;;;1.60;0.80;;;21.20;63.50;;;;;;5351759;26;20499;-91
2024/04/15 07:48:31;;;;;;;2.20;0.90;;;21.20;63.50;;;;;;5350890;26;20464;-91
2024/04/15 07:51:00;;;;;;;1.70;1.00;;;21.20;63.50;;;;;;5351351;26;21031;-90
2024/04/15 07:53:25;;;;;;;1.60;1.00;;;21.20;63.50;;;;;;5352257;26;20245;-91
2024/04/15 07:55:54;;;;;;;2.00;0.90;;;21.20;63.50;;;;;;5351826;26;20445;-91
2024/04/15 07:58:20;;;;;;;1.90;0.90;;;21.30;63.60;;;;;;5351230;26;20346;-91
2024/04/15 08:00:53;;;;;;;1.60;0.80;;;21.20;63.40;;;;;;5349428;26;20461;-91
2024/04/15 08:03:19;;;;;;;2.00;1.00;;;21.20;63.40;;;;;;5369527;26;20266;-91
2024/04/15 08:05:47;;;;;;;2.00;1.10;;;21.20;63.50;;;;;;5371733;26;20531;-91
2024/04/15 08:08:13;;;;;;;1.90;1.00;;;21.20;63.40;;;;;;5353850;26;20513;-91
2024/04/15 08:10:41;;;;;;;1.80;1.00;;;21.20;63.40;;;;;;5350029;26;20572;-91
2024/04/15 08:13:07;;;;;;;1.83;1.10;;;21.20;63.40;;;;;;5349082;26;20297;-91
2024/04/15 08:15:36;;;;;;;2.20;1.00;;;21.20;63.40;;;;;;5350598;26;20453;-91
2024/04/15 08:18:04;;;;;;;1.93;0.90;;;21.20;63.40;;;;;;5353008;26;20560;-90
2024/04/15 08:20:33;;;;;;;1.90;1.10;;;21.20;63.40;;;;;;5353732;26;20449;-91
2024/04/15 08:22:59;;;;;;;3.10;1.07;;;21.20;63.40;;;;;;5352595;26;20559;-91
2024/04/15 08:25:27;;;;;;;1.80;1.10;;;21.20;63.40;;;;;;5351214;26;20481;-91
2024/04/15 08:27:53;;;;;;;2.10;1.20;;;21.30;63.60;;;;;;5350683;26;20219;-91
2024/04/15 08:30:24;;;;;;;2.00;0.90;;;21.20;63.30;;;;;;5351172;26;20583;-90
2024/04/15 08:32:51;;;;;;;2.60;1.03;;;21.20;63.30;;;;;;5320040;26;20265;-91
2024/04/15 08:35:22;;;;;;;1.90;1.07;;;21.20;63.30;;;;;;5350163;26;20835;-92
2024/04/15 08:37:48;;;;;;;1.90;1.13;;;21.20;63.30;;;;;;5350611;26;20453;-92
2024/04/15 08:40:16;;;;;;;1.70;1.07;;;21.20;63.30;;;;;;5350116;26;20576;-91
2024/04/15 08:42:48;;;;;;;2.00;1.20;;;21.20;63.30;;;;;;5350512;26;20713;-90
2024/04/15 08:45:21;;;;;;;1.57;0.90;;;21.30;63.40;;;;;;5350615;26;20821;-90
2024/04/15 08:47:50;;;;;;;2.03;1.10;;;21.20;63.30;;;;;;5349498;26;20449;-91
2024/04/15 08:50:20;;;;;;;2.83;1.20;;;21.30;63.40;;;;;;5350001;26;20814;-91
2024/04/15 08:52:48;;;;;;;2.10;1.27;;;21.20;63.30;;;;;;5350520;26;20557;-90
2024/04/15 08:55:17;;;;;;;1.53;0.90;;;21.30;63.40;;;;;;5349983;26;20972;-90
2024/04/15 08:57:45;;;;;;;2.97;1.13;;;21.20;63.30;;;;;;5350317;26;20499;-91
2024/04/15 09:00:17;;;;;;;2.00;1.27;;;21.20;63.30;;;;;;5350059;26;20501;-91
2024/04/15 09:02:43;;;;;;;1.77;0.87;;;21.30;63.40;;;;;;5349223;26;20493;-91
2024/04/15 09:05:12;;;;;;;1.60;1.00;;;21.20;63.20;;;;;;5348787;26;20449;-91
2024/04/15 09:07:38;;;;;;;1.80;1.07;;;21.30;63.30;;;;;;5349261;26;20453;-90
2024/04/15 09:10:10;;;;;;;2.20;1.30;;;21.30;63.30;;;;;;5348473;26;20449;-92
2024/04/15 09:12:36;;;;;;;1.93;0.90;;;21.30;63.30;;;;;;5358436;26;20481;-91
2024/04/15 09:15:04;;;;;;;1.90;0.97;;;21.30;63.30;;;;;;5351975;26;20495;-92
2024/04/15 09:17:31;;;;;;;1.50;0.80;;;21.30;63.30;;;;;;5348851;26;20461;-90
2024/04/15 09:20:00;;;;;;;2.13;0.97;;;21.30;63.30;;;;;;5348854;26;20453;-91
2024/04/15 09:22:28;;;;;;;2.00;1.30;;;21.30;63.30;;;;;;5348583;26;20794;-90
2024/04/15 09:24:57;;;;;;;2.10;1.07;;;21.30;63.30;;;;;;5349097;26;20509;-89
2024/04/15 09:27:25;;;;;;;1.67;0.90;;;21.30;63.30;;;;;;5348963;26;20603;-91
2024/04/15 09:29:54;;;;;;;2.77;1.13;;;21.30;63.20;;;;;;5349239;26;20453;-92
2024/04/15 09:32:21;;;;;;;1.80;1.00;;;21.30;63.20;;;;;;5348796;26;20503;-92
2024/04/15 09:34:50;;;;;;;1.50;0.90;;;21.30;63.20;;;;;;5350718;26;20512;-91
2024/04/15 09:37:16;;;;;;;1.70;1.00;;;21.40;63.30;;;;;;5370590;26;20508;-91
2024/04/15 09:39:45;;;;;;;1.70;1.07;;;21.30;63.20;;;;;;5370226;26;20442;-92
2024/04/15 09:42:15;;;;;;;1.70;0.90;;;21.30;63.10;;;;;;5349095;26;20683;-91
2024/04/15 09:44:47;;;;;;;1.60;0.93;;;21.30;63.10;;;;;;5347872;26;20570;-91
2024/04/15 09:47:13;;;;;;;1.97;1.10;;;21.30;63.10;;;;;;5348241;26;20936;-91
2024/04/15 09:49:42;;;;;;;1.60;0.90;;;21.40;63.30;;;;;;5347829;26;20449;-91
2024/04/15 09:52:14;;;;;;;1.77;1.13;;;21.30;63.10;;;;;;5348103;26;20468;-91
2024/04/15 09:54:43;;;;;;;3.03;1.37;;;21.30;63.10;;;;;;5347348;26;20558;-91
2024/04/15 09:57:14;;;;;;;2.60;1.20;;;21.30;63.10;;;;;;5347794;26;20505;-91
2024/04/15 09:59:45;;;;;;;1.60;0.90;;;21.30;63.10;;;;;;5347808;26;20449;-91
2024/04/15 10:02:24;;;;;;;3.20;1.20;;;21.30;63.10;;;;;;5346929;26;20453;-91
2024/04/15 10:04:55;;;;;;;1.90;1.23;;;21.30;63.10;;;;;;5347574;26;20453;-91
2024/04/15 10:07:21;;;;;;;1.70;1.00;;;21.40;63.30;;;;;;5347130;26;20461;-91
2024/04/15 10:09:51;;;;;;;1.70;1.00;;;21.40;63.20;;;;;;5347097;26;20465;-91
2024/04/15 10:12:17;;;;;;;2.17;1.20;;;21.30;63.10;;;;;;5346953;26;20505;-90
2024/04/15 10:14:46;;;;;;;2.00;1.00;;;21.30;63.10;;;;;;5347196;26;20457;-90
2024/04/15 10:17:18;;;;;;;2.00;1.10;;;21.30;63.10;;;;;;5346958;26;20516;-90
2024/04/15 10:19:49;;;;;;;1.80;0.93;;;21.30;63.10;;;;;;5347185;26;20595;-90
2024/04/15 10:22:16;;;;;;;2.30;1.17;;;21.30;63.10;;;;;;5350074;26;20456;-91
2024/04/15 10:24:45;;;;;;;1.70;1.20;;;21.30;63.10;;;;;;5350689;26;21012;-90
2024/04/15 10:27:11;;;;;;;1.70;1.10;;;21.30;63.10;;;;;;5350695;26;20516;-90
2024/04/15 10:29:41;;;;;;;1.50;0.90;;;21.30;63.10;;;;;;5350586;26;21019;-91
2024/04/15 10:32:08;;;;;;;2.00;1.20;;;21.40;63.20;;;;;;5350715;26;20785;-90
2024/04/15 10:34:43;;;;;;;1.90;0.90;;;21.30;63.00;;;;;;5350868;26;20465;-90
2024/04/15 10:37:11;;;;;;;1.60;0.90;;;21.30;63.00;;;;;;5350541;26;20468;-90
2024/04/15 10:39:46;;;;;;;1.70;1.10;;;21.40;63.20;;;;;;5349872;26;20964;-90
2024/04/15 10:42:13;;;;;;;2.10;1.17;;;21.40;63.20;;;;;;5352457;26;20472;-90
2024/04/15 10:44:41;;;;;;;2.33;1.17;;;21.30;63.00;;;;;;5370405;26;20535;-90
2024/04/15 10:47:07;;;;;;;1.70;0.80;;;21.30;63.10;;;;;;5372823;26;20543;-90
2024/04/15 10:49:35;;;;;;;1.97;0.97;;;21.30;63.20;;;;;;5368612;26;20457;-88
2024/04/15 10:52:04;;;;;;;2.57;1.07;;;21.30;63.10;;;;;;5351657;26;20223;-90
2024/04/15 10:54:34;;;;;;;2.33;1.00;;;21.30;63.10;;;;;;5350920;26;20508;-90
2024/04/15 10:57:00;;;;;;;1.70;1.00;;;21.30;63.20;;;;;;5350787;26;20518;-90
2024/04/15 10:59:31;;;;;;;1.70;1.10;;;21.30;63.00;;;;;;5350401;26;20564;-90
2024/04/15 11:01:56;;;;;;;1.60;1.00;;;21.30;63.00;;;;;;5350161;26;20382;-89
2024/04/15 11:04:25;;;;;;;1.77;1.03;;;21.30;63.10;;;;;;5350269;26;20489;-90
2024/04/15 11:06:51;;;;;;;2.13;1.10;;;21.30;63.20;;;;;;5350244;26;20472;-90
2024/04/15 11:09:24;;;;;;;1.80;1.10;;;21.30;63.30;;;;;;5363823;26;20441;-90
2024/04/15 11:11:50;;;;;;;1.70;0.93;;;21.30;63.30;;;;;;5370185;26;20536;-89
2024/04/15 11:14:20;;;;;;;2.00;1.10;;;21.30;63.20;;;;;;5352805;26;20461;-90
2024/04/15 11:16:46;;;;;;;2.13;0.97;;;21.30;63.30;;;;;;5350525;26;20316;-90
2024/04/15 11:19:16;;;;;;;1.60;1.00;;;21.40;63.30;;;;;;5350043;26;20780;-90
2024/04/15 11:21:42;;;;;;;1.60;0.90;;;21.30;63.40;;;;;;5350008;26;21020;-90
2024/04/15 11:24:10;;;;;;;2.27;0.80;;;21.40;63.50;;;;;;5349902;26;20457;-90
2024/04/15 11:26:41;;;;;;;1.90;1.00;;;21.40;63.30;;;;;;5349892;26;20516;-90
2024/04/15 11:29:11;;;;;;;1.70;1.00;;;21.30;63.30;;;;;;5350143;26;20445;-89
2024/04/15 11:31:37;;;;;;;2.63;1.40;;;21.30;63.20;;;;;;5349738;26;21021;-90
2024/04/15 11:34:06;;;;;;;2.13;1.17;;;21.30;63.20;;;;;;5349734;26;20579;-90
2024/04/15 11:36:32;;;;;;;1.90;1.00;;;21.30;63.20;;;;;;5349696;26;20465;-90
2024/04/15 11:39:01;;;;;;;1.80;0.80;;;21.30;63.20;;;;;;5350061;26;20841;-91
2024/04/15 11:41:27;;;;;;;1.60;0.90;;;21.30;63.20;;;;;;5349197;26;20517;-90
2024/04/15 11:44:00;;;;;;;1.80;1.03;;;21.20;63.10;;;;;;5349654;26;20441;-90
2024/04/15 11:46:38;;;;;;;2.00;1.00;;;21.30;63.20;;;;;;5349148;26;20540;-90
2024/04/15 11:49:06;;;;;;;1.80;0.80;;;21.30;63.30;;;;;;5349400;26;20794;-89
2024/04/15 11:51:32;;;;;;;2.13;1.03;;;21.30;63.20;;;;;;5349039;26;20962;-90
2024/04/15 11:54:03;;;;;;;2.20;0.93;;;21.30;63.20;;;;;;5349435;26;20560;-90
2024/04/15 11:56:28;;;;;;;2.50;1.13;;;21.30;63.10;;;;;;5349331;26;20605;-91
2024/04/15 11:59:00;;;;;;;1.80;1.03;;;21.40;63.30;;;;;;5349098;26;20505;-90
2024/04/15 12:01:27;;;;;;;1.50;0.80;;;21.30;63.00;;;;;;5349374;26;20457;-90
2024/04/15 12:03:55;;;;;;;3.17;1.00;;;21.40;63.20;;;;;;5348831;26;20457;-90
2024/04/15 12:06:22;;;;;;;1.70;0.90;;;21.30;63.30;;;;;;5349615;26;20468;-93
2024/04/15 12:08:50;;;;;;;2.40;1.20;;;21.30;63.20;;;;;;5349131;26;21042;-91
2024/04/15 12:11:19;;;;;;;1.60;0.80;;;21.40;63.40;;;;;;5349340;26;20472;-92
2024/04/15 12:13:48;;;;;;;1.63;0.87;;;21.30;63.10;;;;;;5349355;26;20453;-91
2024/04/15 12:16:16;;;;;;;1.90;0.90;;;21.40;63.30;;;;;;5349109;26;20500;-90
2024/04/15 12:18:45;;;;;;;1.87;0.97;;;21.30;63.00;;;;;;5349470;26;20600;-90
2024/04/15 12:21:11;;;;;;;2.33;1.20;;;21.30;63.10;;;;;;5349065;26;20465;-90
2024/04/15 12:23:39;;;;;;;2.40;1.00;;;21.30;63.00;;;;;;5349386;26;20912;-91
2024/04/15 12:26:06;;;;;;;1.57;0.80;;;21.40;63.10;;;;;;5349517;26;20270;-91
2024/04/15 12:28:35;;;;;;;1.50;0.80;;;21.30;63.10;;;;;;5349000;26;20495;-91
2024/04/15 12:31:00;;;;;;;1.60;0.80;;;21.40;63.20;;;;;;5349391;26;20586;-91
2024/04/15 12:33:32;;;;;;;1.77;1.00;;;21.40;63.20;;;;;;5348725;26;20464;-91
2024/04/15 12:35:57;;;;;;;1.60;0.90;;;21.30;63.00;;;;;;5350593;26;20325;-90
2024/04/15 12:38:26;;;;;;;2.17;1.00;;;21.40;63.30;;;;;;5349390;26;20453;-92
2024/04/15 12:40:52;;;;;;;3.00;1.00;;;21.30;63.10;;;;;;5337969;26;20238;-94
2024/04/15 12:43:20;;;;;;;2.10;1.10;;;21.30;63.10;;;;;;5354309;26;20445;-91
2024/04/15 12:45:46;;;;;;;1.80;0.90;;;21.30;63.30;;;;;;5371098;26;20516;-90
2024/04/15 12:48:16;;;;;;;1.97;0.90;;;21.30;63.00;;;;;;5369614;26;20445;-95
2024/04/15 12:50:46;;;;;;;1.70;0.90;;;21.30;63.20;;;;;;5348698;26;20219;-91
2024/04/15 12:53:15;;;;;;;2.30;1.03;;;21.30;62.80;;;;;;5348614;26;20457;-91
2024/04/15 12:55:45;;;;;;;2.23;0.80;;;21.30;62.90;;;;;;5349022;26;20500;-92